createdAt,value
2018-12-10T00:02:01.967Z,4.27
2018-12-10T00:04:31.184Z,3.70
2018-12-10T00:07:00.497Z,2.93
2018-12-10T00:09:29.691Z,4.20
2018-12-10T00:11:59.109Z,5.90
2018-12-10T00:14:28.227Z,4.13
2018-12-10T00:16:57.458Z,3.70
2018-12-10T00:19:26.713Z,4.03
2018-12-10T00:21:55.855Z,3.67
2018-12-10T00:24:24.971Z,5.27
2018-12-10T00:26:54.163Z,4.43
2018-12-10T00:29:23.417Z,5.27
2018-12-10T00:31:52.655Z,3.27
2018-12-10T00:34:21.804Z,3.30
2018-12-10T00:36:51.081Z,3.30
2018-12-10T00:39:20.312Z,3.30
2018-12-10T00:41:49.531Z,3.60
2018-12-10T00:44:18.739Z,2.60
2018-12-10T00:46:48.078Z,2.90
2018-12-10T00:49:17.258Z,2.60
2018-12-10T00:51:46.474Z,3.33
2018-12-10T00:54:15.643Z,3.33
2018-12-10T00:56:44.856Z,3.40
2018-12-10T00:59:14.043Z,2.40
2018-12-10T01:01:43.532Z,3.93
2018-12-10T01:04:12.770Z,2.63
2018-12-10T01:06:41.990Z,3.90
2018-12-10T01:09:11.152Z,3.17
2018-12-10T01:11:40.397Z,2.80
2018-12-10T01:14:09.619Z,3.57
2018-12-10T01:16:39.559Z,3.33
2018-12-10T01:19:08.776Z,3.03
2018-12-10T01:21:37.896Z,3.03
2018-12-10T01:24:07.072Z,3.00
2018-12-10T01:26:36.215Z,3.43
2018-12-10T01:29:05.452Z,3.47
2018-12-10T01:31:34.651Z,3.07
2018-12-10T01:34:03.927Z,3.90
2018-12-10T01:36:33.151Z,3.53
2018-12-10T01:39:02.326Z,3.87
2018-12-10T01:41:31.471Z,3.40
2018-12-10T01:44:00.778Z,3.63
2018-12-10T01:46:30.043Z,2.60
2018-12-10T01:48:59.238Z,3.27
2018-12-10T01:51:28.440Z,3.40
2018-12-10T01:53:57.627Z,3.17
2018-12-10T01:56:26.853Z,3.50
2018-12-10T01:58:56.115Z,3.00
2018-12-10T02:01:25.426Z,2.73
2018-12-10T02:03:54.612Z,4.10
2018-12-10T02:06:24.291Z,2.20
2018-12-10T02:08:53.999Z,3.10
2018-12-10T02:11:23.163Z,2.60
2018-12-10T02:13:52.396Z,3.17
2018-12-10T02:16:21.693Z,2.70
2018-12-10T02:18:50.972Z,3.20
2018-12-10T02:21:20.319Z,2.33
2018-12-10T02:23:49.823Z,3.00
2018-12-10T02:26:19.025Z,3.50
2018-12-10T02:28:53.513Z,3.40
2018-12-10T02:31:22.867Z,3.80
2018-12-10T02:33:52.051Z,2.53
2018-12-10T02:36:21.227Z,2.90
2018-12-10T02:38:50.470Z,2.33
2018-12-10T02:41:20.083Z,3.30
2018-12-10T02:43:49.283Z,2.53
2018-12-10T02:46:18.595Z,3.30
2018-12-10T02:48:47.787Z,2.77
2018-12-10T02:51:23.170Z,3.33
2018-12-10T02:53:52.758Z,2.00
2018-12-10T02:56:22.131Z,2.83
2018-12-10T02:58:51.317Z,2.27
2018-12-10T03:01:20.501Z,3.27
2018-12-10T03:03:49.688Z,3.07
2018-12-10T03:06:18.907Z,2.97
2018-12-10T03:08:48.081Z,2.33
2018-12-10T03:11:17.259Z,2.13
2018-12-10T03:13:46.424Z,3.40
2018-12-10T03:16:15.759Z,2.70
2018-12-10T03:18:45.051Z,3.07
2018-12-10T03:21:14.210Z,2.30
2018-12-10T03:23:43.450Z,2.77
2018-12-10T03:26:12.639Z,2.87
2018-12-10T03:28:41.898Z,3.40
2018-12-10T03:31:11.012Z,2.50
2018-12-10T03:33:40.271Z,4.63
2018-12-10T03:36:09.474Z,4.10
2018-12-10T03:38:38.642Z,4.03
2018-12-10T03:41:07.884Z,4.27
2018-12-10T03:43:37.057Z,4.17
2018-12-10T03:46:06.290Z,4.37
2018-12-10T03:48:35.532Z,5.40
2018-12-10T03:51:04.872Z,4.10
2018-12-10T03:53:34.098Z,4.40
2018-12-10T03:56:03.503Z,3.90
2018-12-10T03:58:32.662Z,4.70
2018-12-10T04:01:01.844Z,4.20
2018-12-10T04:03:30.995Z,3.27
2018-12-10T04:06:00.258Z,3.43
2018-12-10T04:08:29.445Z,4.00
2018-12-10T04:10:58.755Z,4.27
2018-12-10T04:13:27.911Z,4.33
2018-12-10T04:15:57.191Z,3.90
2018-12-10T04:18:26.411Z,4.30
2018-12-10T04:20:55.651Z,3.33
2018-12-10T04:23:24.866Z,3.10
2018-12-10T04:25:54.026Z,3.17
2018-12-10T04:28:23.379Z,3.30
2018-12-10T04:30:52.590Z,2.70
2018-12-10T04:33:21.828Z,4.10
2018-12-10T04:35:51.028Z,3.17
2018-12-10T04:38:20.178Z,4.33
2018-12-10T04:40:49.305Z,3.67
2018-12-10T04:43:18.499Z,3.73
2018-12-10T04:45:47.746Z,4.80
2018-12-10T04:48:16.944Z,4.53
2018-12-10T04:50:46.152Z,4.07
2018-12-10T04:53:15.493Z,4.33
2018-12-10T04:55:44.624Z,3.67
2018-12-10T04:58:13.868Z,5.43
2018-12-10T05:00:43.115Z,4.20
2018-12-10T05:03:12.455Z,2.93
2018-12-10T05:05:41.714Z,4.10
2018-12-10T05:08:10.906Z,4.00
2018-12-10T05:10:40.087Z,3.40
2018-12-10T05:13:09.271Z,3.27
2018-12-10T05:15:38.433Z,3.70
2018-12-10T05:18:07.811Z,3.00
2018-12-10T05:20:37.037Z,3.50
2018-12-10T05:23:06.262Z,3.80
2018-12-10T05:25:35.616Z,3.80
2018-12-10T05:28:04.941Z,3.90
2018-12-10T05:30:34.150Z,3.20
2018-12-10T05:33:03.428Z,2.90
2018-12-10T05:35:32.747Z,2.47
2018-12-10T05:38:01.957Z,3.57
2018-12-10T05:40:31.529Z,4.17
2018-12-10T05:43:00.775Z,4.07
2018-12-10T05:45:29.903Z,2.90
2018-12-10T05:47:59.259Z,3.37
2018-12-10T05:50:28.584Z,2.73
2018-12-10T05:52:57.901Z,3.67
2018-12-10T05:55:27.193Z,4.27
2018-12-10T05:57:56.407Z,2.83
2018-12-10T06:00:25.753Z,4.30
2018-12-10T06:02:54.969Z,4.70
2018-12-10T06:05:24.226Z,3.77
2018-12-10T06:07:53.915Z,3.27
2018-12-10T06:10:23.155Z,2.73
2018-12-10T06:12:52.426Z,2.90
2018-12-10T06:15:21.614Z,2.83
2018-12-10T06:17:50.839Z,3.00
2018-12-10T06:20:20.020Z,3.60
2018-12-10T06:22:49.303Z,3.03
2018-12-10T06:25:18.553Z,2.97
2018-12-10T06:27:48.135Z,3.07
2018-12-10T06:30:17.275Z,2.87
2018-12-10T06:32:46.431Z,3.00
2018-12-10T06:35:15.748Z,3.27
2018-12-10T06:37:45.083Z,2.80
2018-12-10T06:40:14.335Z,2.70
2018-12-10T06:42:43.544Z,3.03
2018-12-10T06:45:12.838Z,3.20
2018-12-10T06:47:42.103Z,3.00
2018-12-10T06:50:11.311Z,2.70
2018-12-10T06:52:40.548Z,3.60
2018-12-10T06:55:09.938Z,2.60
2018-12-10T06:57:39.155Z,2.60
2018-12-10T07:00:11.330Z,3.50
2018-12-10T07:02:40.448Z,3.20
2018-12-10T07:05:09.667Z,3.77
2018-12-10T07:07:38.936Z,2.97
2018-12-10T07:10:09.511Z,2.70
2018-12-10T07:12:38.703Z,2.70
2018-12-10T07:15:07.975Z,3.10
2018-12-10T07:17:37.266Z,3.07
2018-12-10T07:20:07.641Z,3.80
2018-12-10T07:22:38.448Z,4.23
2018-12-10T07:25:07.661Z,4.50
2018-12-10T07:27:36.911Z,4.70
2018-12-10T07:30:07.540Z,10.40
2018-12-10T07:32:36.696Z,3.93
2018-12-10T07:35:06.038Z,4.23
2018-12-10T07:37:35.175Z,3.80
2018-12-10T07:40:06.569Z,3.93
2018-12-10T07:42:35.827Z,4.40
2018-12-10T07:45:06.003Z,3.40
2018-12-10T07:47:35.334Z,3.77
2018-12-10T07:50:04.745Z,3.77
2018-12-10T07:52:33.973Z,4.13
2018-12-10T07:55:03.182Z,3.90
2018-12-10T07:57:32.433Z,3.00
2018-12-10T08:00:01.721Z,3.37
2018-12-10T08:02:30.982Z,3.27
2018-12-10T08:05:00.289Z,2.43
2018-12-10T08:07:29.420Z,2.80
2018-12-10T08:09:58.745Z,2.53
2018-12-10T08:12:27.980Z,3.23
2018-12-10T08:14:57.206Z,2.70
2018-12-10T08:17:26.543Z,2.80
2018-12-10T08:19:55.752Z,2.83
2018-12-10T08:22:24.900Z,3.07
2018-12-10T08:24:54.030Z,3.90
2018-12-10T08:27:23.339Z,3.10
2018-12-10T08:29:52.571Z,4.73
2018-12-10T08:32:21.756Z,3.73
2018-12-10T08:34:50.945Z,3.10
2018-12-10T08:37:20.151Z,2.50
2018-12-10T08:39:49.320Z,3.27
2018-12-10T08:42:18.537Z,4.17
2018-12-10T08:44:47.804Z,3.40
2018-12-10T08:47:17.003Z,3.30
2018-12-10T08:49:46.292Z,3.40
2018-12-10T08:52:15.528Z,3.43
2018-12-10T08:54:44.707Z,2.80
2018-12-10T08:57:13.998Z,3.97
2018-12-10T08:59:43.383Z,3.73
2018-12-10T09:02:12.538Z,3.50
2018-12-10T09:04:41.768Z,3.27
2018-12-10T09:07:10.930Z,3.20
2018-12-10T09:09:40.123Z,6.50
2018-12-10T09:12:09.374Z,3.50
2018-12-10T09:14:38.687Z,3.43
2018-12-10T09:17:07.871Z,3.90
2018-12-10T09:19:37.069Z,2.70
2018-12-10T09:22:06.269Z,3.47
2018-12-10T09:24:35.472Z,2.53
2018-12-10T09:27:04.718Z,2.40
2018-12-10T09:29:33.969Z,2.47
2018-12-10T09:32:03.352Z,2.40
2018-12-10T09:34:32.602Z,2.50
2018-12-10T09:37:01.724Z,3.07
2018-12-10T09:39:30.939Z,2.00
2018-12-10T09:42:00.154Z,3.43
2018-12-10T09:44:29.447Z,2.20
2018-12-10T09:46:59.252Z,2.53
2018-12-10T09:49:28.646Z,3.47
2018-12-10T09:51:57.837Z,3.40
2018-12-10T09:54:27.098Z,2.93
2018-12-10T09:56:56.239Z,2.40
2018-12-10T09:59:25.458Z,2.30
2018-12-10T10:01:54.812Z,2.30
2018-12-10T10:04:23.992Z,2.73
2018-12-10T10:06:53.204Z,1.97
2018-12-10T10:09:22.368Z,2.13
2018-12-10T10:11:51.577Z,3.03
2018-12-10T10:14:20.771Z,2.80
2018-12-10T10:16:49.950Z,3.70
2018-12-10T10:19:18.998Z,2.30
2018-12-10T10:21:48.214Z,3.00
2018-12-10T10:24:17.516Z,2.87
2018-12-10T10:26:46.696Z,2.50
2018-12-10T10:29:15.867Z,2.23
2018-12-10T10:31:45.116Z,3.00
2018-12-10T10:34:14.294Z,2.40
2018-12-10T10:36:44.632Z,2.23
2018-12-10T10:39:14.073Z,2.60
2018-12-10T10:41:43.216Z,2.43
2018-12-10T10:44:12.386Z,2.47
2018-12-10T10:46:41.637Z,2.63
2018-12-10T10:49:10.872Z,3.07
2018-12-10T10:51:40.063Z,2.70
2018-12-10T10:54:09.487Z,3.23
2018-12-10T10:56:38.769Z,2.37
2018-12-10T10:59:07.952Z,2.13
2018-12-10T11:01:54.045Z,5.57
2018-12-10T11:04:23.244Z,2.60
2018-12-10T11:06:52.448Z,4.10
2018-12-10T11:09:22.012Z,2.47
2018-12-10T11:11:51.194Z,2.47
2018-12-10T11:14:20.451Z,2.10
2018-12-10T11:16:49.724Z,2.10
2018-12-10T11:19:19.000Z,2.90
2018-12-10T11:21:48.298Z,2.93
2018-12-10T11:24:17.483Z,3.33
2018-12-10T11:26:46.723Z,2.27
2018-12-10T11:29:15.961Z,3.40
2018-12-10T11:31:45.127Z,4.43
2018-12-10T11:34:14.349Z,3.23
2018-12-10T11:36:43.556Z,2.77
2018-12-10T11:39:12.741Z,2.80
2018-12-10T11:41:41.958Z,2.70
2018-12-10T11:44:11.377Z,2.73
2018-12-10T11:46:40.644Z,3.10
2018-12-10T11:49:09.805Z,3.00
2018-12-10T11:51:38.959Z,1.73
2018-12-10T11:54:08.256Z,2.30
2018-12-10T11:56:37.471Z,2.23
2018-12-10T11:59:06.795Z,3.30
2018-12-10T12:01:36.053Z,2.07
2018-12-10T12:04:05.314Z,2.60
2018-12-10T12:06:34.595Z,2.33
2018-12-10T12:09:04.144Z,1.93
2018-12-10T12:11:33.352Z,2.20
2018-12-10T12:14:02.547Z,2.43
2018-12-10T12:16:31.870Z,2.60
2018-12-10T12:19:01.057Z,2.40
2018-12-10T12:21:30.239Z,2.90
2018-12-10T12:23:59.471Z,2.40
2018-12-10T12:26:28.639Z,2.07
2018-12-10T12:28:57.832Z,2.10
2018-12-10T12:31:27.039Z,2.07
2018-12-10T12:33:56.256Z,2.97
2018-12-10T12:36:25.456Z,2.37
2018-12-10T12:38:55.644Z,2.50
2018-12-10T12:41:24.817Z,3.17
2018-12-10T12:43:54.012Z,1.80
2018-12-10T12:46:23.235Z,2.40
2018-12-10T12:48:52.334Z,2.60
2018-12-10T12:51:21.563Z,2.97
2018-12-10T12:53:50.824Z,3.47
2018-12-10T12:56:20.023Z,2.47
2018-12-10T12:58:49.270Z,2.73
2018-12-10T13:01:18.472Z,2.53
2018-12-10T13:03:47.635Z,2.60
2018-12-10T13:06:16.836Z,3.10
2018-12-10T13:08:46.068Z,2.20
2018-12-10T13:11:15.359Z,3.33
2018-12-10T13:13:44.588Z,1.93
2018-12-10T13:16:13.719Z,2.37
2018-12-10T13:18:42.885Z,1.83
2018-12-10T13:21:12.111Z,3.33
2018-12-10T13:23:41.359Z,2.40
2018-12-10T13:26:10.565Z,2.33
2018-12-10T13:28:39.648Z,2.33
2018-12-10T13:31:08.908Z,2.30
2018-12-10T13:33:38.120Z,1.50
2018-12-10T13:36:07.688Z,1.93
2018-12-10T13:38:37.026Z,2.53
2018-12-10T13:41:06.343Z,2.60
2018-12-10T13:43:35.639Z,2.27
2018-12-10T13:46:04.818Z,2.63
2018-12-10T13:48:33.931Z,2.13
2018-12-10T13:51:03.141Z,3.93
2018-12-10T13:53:32.364Z,2.00
2018-12-10T13:56:01.615Z,2.30
2018-12-10T13:58:30.804Z,2.07
2018-12-10T14:01:00.020Z,2.50
2018-12-10T14:03:29.231Z,2.50
2018-12-10T14:05:58.390Z,2.27
2018-12-10T14:08:27.718Z,2.40
2018-12-10T14:10:57.028Z,2.50
2018-12-10T14:13:26.273Z,2.70
2018-12-10T14:15:55.423Z,3.30
2018-12-10T14:18:24.638Z,2.77
2018-12-10T14:20:53.816Z,3.03
2018-12-10T14:23:23.019Z,2.17
2018-12-10T14:25:52.175Z,2.23
2018-12-10T14:28:21.339Z,2.87
2018-12-10T14:30:50.549Z,3.90
2018-12-10T14:33:19.792Z,2.47
2018-12-10T14:35:48.958Z,1.47
2018-12-10T14:38:18.126Z,2.10
2018-12-10T14:40:47.292Z,2.33
2018-12-10T14:43:16.506Z,1.73
2018-12-10T14:45:45.664Z,2.37
2018-12-10T14:48:14.807Z,1.77
2018-12-10T14:50:43.956Z,2.87
2018-12-10T14:53:13.274Z,2.37
2018-12-10T14:55:42.492Z,2.50
2018-12-10T14:58:11.659Z,2.20
2018-12-10T15:00:40.852Z,2.63
2018-12-10T15:03:10.009Z,2.00
2018-12-10T15:05:39.758Z,1.90
2018-12-10T15:08:08.911Z,2.00
2018-12-10T15:10:38.093Z,2.10
2018-12-10T15:13:07.284Z,2.73
2018-12-10T15:15:36.476Z,2.50
2018-12-10T15:18:05.683Z,1.97
2018-12-10T15:20:34.854Z,1.90
2018-12-10T15:23:04.017Z,2.00
2018-12-10T15:25:33.185Z,1.97
2018-12-10T15:28:02.388Z,1.87
2018-12-10T15:30:31.734Z,2.17
2018-12-10T15:33:00.927Z,2.33
2018-12-10T15:35:30.118Z,1.97
2018-12-10T15:37:59.315Z,3.27
2018-12-10T15:40:28.565Z,2.40
2018-12-10T15:42:57.836Z,1.80
2018-12-10T15:45:27.101Z,2.37
2018-12-10T15:47:56.352Z,2.47
2018-12-10T15:50:25.678Z,2.33
2018-12-10T15:52:54.830Z,1.83
2018-12-10T15:55:24.055Z,2.47
2018-12-10T15:57:53.240Z,2.50
2018-12-10T16:00:22.446Z,2.10
2018-12-10T16:02:51.691Z,2.90
2018-12-10T16:05:20.843Z,2.80
2018-12-10T16:07:50.056Z,2.27
2018-12-10T16:10:19.227Z,2.30
2018-12-10T16:12:48.367Z,2.23
2018-12-10T16:15:17.624Z,2.50
2018-12-10T16:17:46.822Z,2.73
2018-12-10T16:20:16.015Z,2.50
2018-12-10T16:22:45.257Z,2.30
2018-12-10T16:25:14.449Z,2.07
2018-12-10T16:27:43.966Z,3.33
2018-12-10T16:30:16.506Z,2.90
2018-12-10T16:32:45.741Z,2.53
2018-12-10T16:35:14.991Z,3.33
2018-12-10T16:37:44.208Z,3.73
2018-12-10T16:40:13.500Z,2.97
2018-12-10T16:42:42.788Z,3.00
2018-12-10T16:45:12.073Z,2.50
2018-12-10T16:47:41.410Z,2.87
2018-12-10T16:50:10.691Z,2.77
2018-12-10T16:52:39.894Z,3.27
2018-12-10T16:55:09.404Z,2.63
2018-12-10T16:57:38.579Z,4.20
2018-12-10T17:00:12.403Z,3.23
2018-12-10T17:02:41.715Z,2.83
2018-12-10T17:05:10.908Z,2.30
2018-12-10T17:07:40.135Z,3.53
2018-12-10T17:10:10.804Z,1.90
2018-12-10T17:12:39.988Z,2.63
2018-12-10T17:15:09.524Z,2.00
2018-12-10T17:17:38.727Z,2.23
2018-12-10T17:20:08.623Z,2.60
2018-12-10T17:22:37.828Z,1.60
2018-12-10T17:25:07.954Z,2.00
2018-12-10T17:27:37.143Z,1.33
2018-12-10T17:30:07.400Z,1.87
2018-12-10T17:32:36.627Z,1.83
2018-12-10T17:35:06.646Z,1.70
2018-12-10T17:37:35.919Z,1.83
2018-12-10T17:40:05.263Z,1.83
2018-12-10T17:42:34.589Z,2.40
2018-12-10T17:45:04.170Z,2.80
2018-12-10T17:47:33.474Z,2.73
2018-12-10T17:50:02.699Z,2.93
2018-12-10T17:52:31.895Z,2.93
2018-12-10T17:55:01.067Z,3.20
2018-12-10T17:57:30.292Z,3.33
2018-12-10T17:59:59.481Z,4.90
2018-12-10T18:02:28.754Z,3.70
2018-12-10T18:04:57.928Z,4.93
2018-12-10T18:07:27.123Z,4.23
2018-12-10T18:09:56.397Z,5.20
2018-12-10T18:12:25.561Z,4.47
2018-12-10T18:14:54.706Z,5.00
2018-12-10T18:17:23.943Z,6.00
2018-12-10T18:19:53.127Z,5.80
2018-12-10T18:22:22.470Z,5.83
2018-12-10T18:24:51.567Z,7.07
2018-12-10T18:27:20.860Z,6.37
2018-12-10T18:29:50.095Z,5.83
2018-12-10T18:32:19.305Z,5.57
2018-12-10T18:34:48.550Z,7.50
2018-12-10T18:37:17.648Z,5.10
2018-12-10T18:39:46.891Z,5.90
2018-12-10T18:42:16.140Z,5.90
2018-12-10T18:44:45.376Z,5.50
2018-12-10T18:47:14.553Z,5.27
2018-12-10T18:49:43.784Z,6.30
2018-12-10T18:52:13.071Z,5.00
2018-12-10T18:54:42.259Z,3.83
2018-12-10T18:57:11.430Z,4.03
2018-12-10T18:59:41.176Z,4.00
2018-12-10T19:02:10.408Z,4.13
2018-12-10T19:04:39.559Z,3.70
2018-12-10T19:07:08.820Z,2.87
2018-12-10T19:09:37.987Z,1.93
2018-12-10T19:12:07.143Z,2.10
2018-12-10T19:14:36.409Z,2.43
2018-12-10T19:17:12.230Z,2.73
2018-12-10T19:19:41.479Z,2.70
2018-12-10T19:22:10.708Z,2.70
2018-12-10T19:24:39.915Z,2.50
2018-12-10T19:27:09.136Z,2.57
2018-12-10T19:29:38.306Z,2.50
2018-12-10T19:32:07.560Z,3.40
2018-12-10T19:34:36.788Z,2.53
2018-12-10T19:37:06.000Z,2.97
2018-12-10T19:39:35.204Z,2.30
2018-12-10T19:42:04.384Z,2.83
2018-12-10T19:44:33.606Z,3.30
2018-12-10T19:47:02.855Z,2.87
2018-12-10T19:49:32.252Z,3.43
2018-12-10T19:52:01.354Z,3.70
2018-12-10T19:54:30.615Z,3.07
2018-12-10T19:56:59.882Z,3.50
2018-12-10T19:59:29.089Z,3.20
2018-12-10T20:01:58.208Z,3.37
2018-12-10T20:04:28.093Z,3.87
2018-12-10T20:07:02.649Z,3.43
2018-12-10T20:09:31.884Z,2.77
2018-12-10T20:12:01.119Z,3.20
2018-12-10T20:14:31.472Z,3.60
2018-12-10T20:17:00.783Z,3.87
2018-12-10T20:19:30.004Z,2.73
2018-12-10T20:21:59.206Z,2.90
2018-12-10T20:24:28.453Z,3.67
2018-12-10T20:26:57.658Z,3.03
2018-12-10T20:29:26.956Z,3.60
2018-12-10T20:31:56.174Z,3.00
2018-12-10T20:34:25.503Z,3.23
2018-12-10T20:36:54.776Z,3.63
2018-12-10T20:39:24.023Z,2.33
2018-12-10T20:41:53.164Z,2.73
2018-12-10T20:44:22.345Z,3.47
2018-12-10T20:46:51.528Z,2.67
2018-12-10T20:49:20.625Z,3.27
2018-12-10T20:51:49.783Z,3.20
2018-12-10T20:54:18.976Z,2.97
2018-12-10T20:56:48.220Z,2.80
2018-12-10T20:59:17.386Z,2.80
2018-12-10T21:01:46.642Z,3.07
2018-12-10T21:04:15.861Z,3.33
2018-12-10T21:06:45.032Z,3.10
2018-12-10T21:09:14.188Z,3.20
2018-12-10T21:11:43.480Z,3.50
2018-12-10T21:14:12.655Z,3.10
2018-12-10T21:16:41.811Z,3.63
2018-12-10T21:19:10.933Z,3.60
2018-12-10T21:21:40.227Z,3.83
2018-12-10T21:24:09.524Z,3.10
2018-12-10T21:26:38.719Z,3.37
2018-12-10T21:29:07.897Z,3.10
2018-12-10T21:31:37.098Z,3.40
2018-12-10T21:34:06.339Z,3.40
2018-12-10T21:36:35.632Z,4.60
2018-12-10T21:39:07.906Z,3.47
2018-12-10T21:41:37.142Z,3.20
2018-12-10T21:44:06.441Z,3.57
2018-12-10T21:46:35.771Z,3.10
2018-12-10T21:49:04.967Z,3.10
2018-12-10T21:51:34.096Z,4.23
2018-12-10T21:54:03.256Z,4.50
2018-12-10T21:56:32.476Z,3.43
2018-12-10T21:59:01.618Z,4.40
2018-12-10T22:01:30.817Z,7.70
2018-12-10T22:03:59.972Z,4.20
2018-12-10T22:06:29.155Z,3.83
2018-12-10T22:08:58.390Z,3.67
2018-12-10T22:11:27.654Z,3.67
2018-12-10T22:13:56.789Z,3.20
2018-12-10T22:16:26.142Z,3.80
2018-12-10T22:18:55.823Z,3.40
2018-12-10T22:21:25.075Z,2.80
2018-12-10T22:23:54.312Z,4.10
2018-12-10T22:26:23.542Z,3.87
2018-12-10T22:28:52.635Z,4.57
2018-12-10T22:31:21.837Z,2.90
2018-12-10T22:33:50.977Z,3.83
2018-12-10T22:36:20.279Z,3.77
2018-12-10T22:38:49.426Z,2.73
2018-12-10T22:41:18.586Z,2.90
2018-12-10T22:43:47.699Z,3.37
2018-12-10T22:46:16.904Z,4.17
2018-12-10T22:48:46.211Z,3.57
2018-12-10T22:51:15.560Z,4.23
2018-12-10T22:53:44.739Z,3.53
2018-12-10T22:56:13.925Z,3.10
2018-12-10T22:58:43.027Z,5.00
2018-12-10T23:01:12.235Z,4.13
2018-12-10T23:03:41.400Z,2.60
2018-12-10T23:06:10.635Z,3.93
2018-12-10T23:08:39.992Z,3.37
2018-12-10T23:11:09.168Z,2.77
2018-12-10T23:13:38.356Z,2.37
2018-12-10T23:16:07.520Z,2.07
2018-12-10T23:18:36.820Z,2.87
2018-12-10T23:21:06.041Z,2.90
2018-12-10T23:23:35.274Z,2.57
2018-12-10T23:26:04.453Z,4.73
2018-12-10T23:28:33.702Z,3.90
2018-12-10T23:31:02.856Z,3.60
2018-12-10T23:33:32.024Z,3.50
2018-12-10T23:36:01.210Z,3.37
2018-12-10T23:38:30.412Z,3.37
2018-12-10T23:40:59.672Z,4.10
2018-12-10T23:43:28.809Z,4.20
2018-12-10T23:45:58.010Z,3.80
2018-12-10T23:48:27.261Z,3.50
2018-12-10T23:50:56.478Z,4.57
2018-12-10T23:53:25.608Z,3.93
2018-12-10T23:55:54.762Z,3.13
2018-12-10T23:58:23.943Z,2.93
